sensor_id;sensor_type;location;lat;lon;timestamp;P1;durP1;ratioP1;P2;durP2;ratioP2
315;SDS011;14128;48.686;9.738;2022-12-11T00:01:46;29.73;;;19.40;;
315;SDS011;14128;48.686;9.738;2022-12-11T00:04:13;35.73;;;22.03;;
315;SDS011;14128;48.686;9.738;2022-12-11T00:06:40;34.93;;;21.50;;
315;SDS011;14128;48.686;9.738;2022-12-11T00:09:07;28.40;;;19.40;;
315;SDS011;14128;48.686;9.738;2022-12-11T00:11:34;33.87;;;22.70;;
315;SDS011;14128;48.686;9.738;2022-12-11T00:14:01;32.20;;;19.70;;
315;SDS011;14128;48.686;9.738;2022-12-11T00:16:29;30.40;;;20.93;;
315;SDS011;14128;48.686;9.738;2022-12-11T00:18:56;32.63;;;20.13;;
315;SDS011;14128;48.686;9.738;2022-12-11T00:21:23;29.30;;;18.37;;
315;SDS011;14128;48.686;9.738;2022-12-11T00:23:50;34.27;;;20.20;;
315;SDS011;14128;48.686;9.738;2022-12-11T00:26:17;32.83;;;22.30;;
315;SDS011;14128;48.686;9.738;2022-12-11T00:28:44;34.23;;;22.50;;
315;SDS011;14128;48.686;9.738;2022-12-11T00:31:12;31.57;;;21.43;;
315;SDS011;14128;48.686;9.738;2022-12-11T00:33:42;29.83;;;20.33;;
315;SDS011;14128;48.686;9.738;2022-12-11T00:36:12;28.20;;;19.93;;
315;SDS011;14128;48.686;9.738;2022-12-11T00:38:40;30.37;;;19.20;;
315;SDS011;14128;48.686;9.738;2022-12-11T00:41:07;31.67;;;19.60;;
315;SDS011;14128;48.686;9.738;2022-12-11T00:43:34;33.53;;;21.33;;
315;SDS011;14128;48.686;9.738;2022-12-11T00:46:01;35.43;;;22.07;;
315;SDS011;14128;48.686;9.738;2022-12-11T00:48:29;34.70;;;24.20;;
315;SDS011;14128;48.686;9.738;2022-12-11T00:50:57;36.57;;;21.97;;
315;SDS011;14128;48.686;9.738;2022-12-11T00:53:24;29.73;;;21.10;;
315;SDS011;14128;48.686;9.738;2022-12-11T00:55:51;34.40;;;24.40;;
315;SDS011;14128;48.686;9.738;2022-12-11T00:58:18;32.10;;;20.63;;
315;SDS011;14128;48.686;9.738;2022-12-11T01:00:45;33.40;;;23.27;;
315;SDS011;14128;48.686;9.738;2022-12-11T01:03:14;32.90;;;20.83;;
315;SDS011;14128;48.686;9.738;2022-12-11T01:05:49;35.63;;;23.87;;
315;SDS011;14128;48.686;9.738;2022-12-11T01:08:18;28.67;;;21.40;;
315;SDS011;14128;48.686;9.738;2022-12-11T01:10:45;36.30;;;23.20;;
315;SDS011;14128;48.686;9.738;2022-12-11T01:13:12;32.83;;;22.63;;
315;SDS011;14128;48.686;9.738;2022-12-11T01:15:40;31.20;;;22.03;;
315;SDS011;14128;48.686;9.738;2022-12-11T01:18:08;35.50;;;20.80;;
315;SDS011;14128;48.686;9.738;2022-12-11T01:20:36;31.77;;;21.77;;
315;SDS011;14128;48.686;9.738;2022-12-11T01:23:04;32.83;;;21.50;;
315;SDS011;14128;48.686;9.738;2022-12-11T01:25:34;32.97;;;20.53;;
315;SDS011;14128;48.686;9.738;2022-12-11T01:28:02;29.00;;;18.63;;
315;SDS011;14128;48.686;9.738;2022-12-11T01:30:30;28.43;;;18.60;;
315;SDS011;14128;48.686;9.738;2022-12-11T01:32:57;28.07;;;18.43;;
315;SDS011;14128;48.686;9.738;2022-12-11T01:35:24;22.73;;;16.40;;
315;SDS011;14128;48.686;9.738;2022-12-11T01:37:50;28.77;;;19.40;;
315;SDS011;14128;48.686;9.738;2022-12-11T01:40:18;22.87;;;17.20;;
315;SDS011;14128;48.686;9.738;2022-12-11T01:42:47;22.87;;;16.17;;
315;SDS011;14128;48.686;9.738;2022-12-11T01:45:22;23.40;;;15.60;;
315;SDS011;14128;48.686;9.738;2022-12-11T01:47:58;19.67;;;14.80;;
315;SDS011;14128;48.686;9.738;2022-12-11T01:50:29;26.97;;;18.43;;
315;SDS011;14128;48.686;9.738;2022-12-11T01:52:59;22.13;;;16.90;;
315;SDS011;14128;48.686;9.738;2022-12-11T01:55:27;22.20;;;17.37;;
315;SDS011;14128;48.686;9.738;2022-12-11T01:57:55;23.53;;;16.20;;
315;SDS011;14128;48.686;9.738;2022-12-11T02:00:22;23.83;;;18.10;;
315;SDS011;14128;48.686;9.738;2022-12-11T02:02:49;24.27;;;15.27;;
315;SDS011;14128;48.686;9.738;2022-12-11T02:05:16;23.20;;;17.20;;
315;SDS011;14128;48.686;9.738;2022-12-11T02:07:44;18.50;;;14.67;;
315;SDS011;14128;48.686;9.738;2022-12-11T02:10:13;21.83;;;15.57;;
315;SDS011;14128;48.686;9.738;2022-12-11T02:12:42;23.37;;;15.80;;
315;SDS011;14128;48.686;9.738;2022-12-11T02:15:20;19.37;;;14.53;;
315;SDS011;14128;48.686;9.738;2022-12-11T02:17:55;21.97;;;13.77;;
315;SDS011;14128;48.686;9.738;2022-12-11T02:20:33;17.60;;;14.10;;
315;SDS011;14128;48.686;9.738;2022-12-11T02:23:14;17.43;;;13.40;;
315;SDS011;14128;48.686;9.738;2022-12-11T02:26:01;14.27;;;10.67;;
315;SDS011;14128;48.686;9.738;2022-12-11T02:28:40;17.30;;;10.20;;
315;SDS011;14128;48.686;9.738;2022-12-11T02:31:11;16.90;;;12.23;;
315;SDS011;14128;48.686;9.738;2022-12-11T02:33:42;16.90;;;13.07;;
315;SDS011;14128;48.686;9.738;2022-12-11T02:36:13;16.17;;;11.57;;
315;SDS011;14128;48.686;9.738;2022-12-11T02:38:43;18.90;;;12.50;;
315;SDS011;14128;48.686;9.738;2022-12-11T02:41:15;14.80;;;10.83;;
315;SDS011;14128;48.686;9.738;2022-12-11T02:43:46;12.90;;;9.60;;
315;SDS011;14128;48.686;9.738;2022-12-11T02:46:15;15.50;;;11.03;;
315;SDS011;14128;48.686;9.738;2022-12-11T02:48:44;17.63;;;11.00;;
315;SDS011;14128;48.686;9.738;2022-12-11T02:51:13;15.30;;;10.70;;
315;SDS011;14128;48.686;9.738;2022-12-11T02:53:43;10.83;;;8.63;;
315;SDS011;14128;48.686;9.738;2022-12-11T02:56:12;10.50;;;8.83;;
315;SDS011;14128;48.686;9.738;2022-12-11T02:58:44;10.77;;;9.60;;
315;SDS011;14128;48.686;9.738;2022-12-11T03:01:16;16.40;;;10.30;;
315;SDS011;14128;48.686;9.738;2022-12-11T03:03:42;18.80;;;12.80;;
315;SDS011;14128;48.686;9.738;2022-12-11T03:06:09;6.53;;;6.03;;
315;SDS011;14128;48.686;9.738;2022-12-11T03:08:42;10.73;;;6.90;;
315;SDS011;14128;48.686;9.738;2022-12-11T03:11:09;10.40;;;7.10;;
315;SDS011;14128;48.686;9.738;2022-12-11T03:13:36;11.80;;;8.43;;
315;SDS011;14128;48.686;9.738;2022-12-11T03:16:08;10.70;;;7.80;;
315;SDS011;14128;48.686;9.738;2022-12-11T03:18:41;8.07;;;6.83;;
315;SDS011;14128;48.686;9.738;2022-12-11T03:21:16;10.10;;;5.80;;
315;SDS011;14128;48.686;9.738;2022-12-11T03:23:48;9.53;;;7.00;;
315;SDS011;14128;48.686;9.738;2022-12-11T03:26:20;10.03;;;6.67;;
315;SDS011;14128;48.686;9.738;2022-12-11T03:28:50;6.67;;;6.03;;
315;SDS011;14128;48.686;9.738;2022-12-11T03:31:24;10.80;;;6.20;;
315;SDS011;14128;48.686;9.738;2022-12-11T03:33:53;7.83;;;6.43;;
315;SDS011;14128;48.686;9.738;2022-12-11T03:36:24;11.47;;;6.70;;
315;SDS011;14128;48.686;9.738;2022-12-11T03:38:56;7.20;;;6.40;;
315;SDS011;14128;48.686;9.738;2022-12-11T03:41:26;8.60;;;6.33;;
315;SDS011;14128;48.686;9.738;2022-12-11T03:43:56;9.50;;;6.63;;
315;SDS011;14128;48.686;9.738;2022-12-11T03:46:26;11.50;;;7.43;;
315;SDS011;14128;48.686;9.738;2022-12-11T03:48:58;9.10;;;7.77;;
315;SDS011;14128;48.686;9.738;2022-12-11T03:51:28;9.60;;;7.80;;
315;SDS011;14128;48.686;9.738;2022-12-11T03:53:56;9.77;;;7.37;;
315;SDS011;14128;48.686;9.738;2022-12-11T03:56:23;8.90;;;7.40;;
315;SDS011;14128;48.686;9.738;2022-12-11T03:58:52;11.30;;;9.07;;
315;SDS011;14128;48.686;9.738;2022-12-11T04:01:19;11.30;;;9.17;;
315;SDS011;14128;48.686;9.738;2022-12-11T04:03:47;10.97;;;8.43;;
315;SDS011;14128;48.686;9.738;2022-12-11T04:06:14;10.47;;;9.07;;
315;SDS011;14128;48.686;9.738;2022-12-11T04:08:41;9.53;;;8.17;;
315;SDS011;14128;48.686;9.738;2022-12-11T04:11:08;16.27;;;11.93;;
315;SDS011;14128;48.686;9.738;2022-12-11T04:13:53;11.93;;;8.83;;
315;SDS011;14128;48.686;9.738;2022-12-11T04:16:34;14.97;;;11.57;;
315;SDS011;14128;48.686;9.738;2022-12-11T04:19:02;16.20;;;11.20;;
315;SDS011;14128;48.686;9.738;2022-12-11T04:21:46;17.07;;;13.63;;
315;SDS011;14128;48.686;9.738;2022-12-11T04:24:31;15.67;;;12.73;;
315;SDS011;14128;48.686;9.738;2022-12-11T04:26:58;15.00;;;12.57;;
315;SDS011;14128;48.686;9.738;2022-12-11T04:29:24;16.70;;;13.00;;
315;SDS011;14128;48.686;9.738;2022-12-11T04:31:51;17.97;;;13.50;;
315;SDS011;14128;48.686;9.738;2022-12-11T04:34:19;15.73;;;11.20;;
315;SDS011;14128;48.686;9.738;2022-12-11T04:36:46;22.60;;;14.17;;
315;SDS011;14128;48.686;9.738;2022-12-11T04:39:13;16.97;;;13.50;;
315;SDS011;14128;48.686;9.738;2022-12-11T04:41:40;18.27;;;13.80;;
315;SDS011;14128;48.686;9.738;2022-12-11T04:44:06;23.70;;;16.07;;
315;SDS011;14128;48.686;9.738;2022-12-11T04:46:33;15.57;;;12.93;;
315;SDS011;14128;48.686;9.738;2022-12-11T04:49:00;22.70;;;14.30;;
315;SDS011;14128;48.686;9.738;2022-12-11T04:51:28;18.20;;;14.20;;
315;SDS011;14128;48.686;9.738;2022-12-11T04:53:56;22.00;;;16.33;;
315;SDS011;14128;48.686;9.738;2022-12-11T04:56:23;22.97;;;17.50;;
315;SDS011;14128;48.686;9.738;2022-12-11T04:58:50;26.20;;;16.17;;
315;SDS011;14128;48.686;9.738;2022-12-11T05:01:17;22.00;;;16.60;;
315;SDS011;14128;48.686;9.738;2022-12-11T05:03:46;24.10;;;16.60;;
315;SDS011;14128;48.686;9.738;2022-12-11T05:06:13;23.67;;;16.87;;
315;SDS011;14128;48.686;9.738;2022-12-11T05:08:42;21.80;;;16.37;;
315;SDS011;14128;48.686;9.738;2022-12-11T05:11:11;23.13;;;16.90;;
315;SDS011;14128;48.686;9.738;2022-12-11T05:13:39;24.90;;;16.33;;
315;SDS011;14128;48.686;9.738;2022-12-11T05:16:06;23.30;;;18.47;;
315;SDS011;14128;48.686;9.738;2022-12-11T05:18:35;23.53;;;17.73;;
315;SDS011;14128;48.686;9.738;2022-12-11T05:21:02;19.90;;;15.30;;
315;SDS011;14128;48.686;9.738;2022-12-11T05:23:31;20.43;;;14.70;;
315;SDS011;14128;48.686;9.738;2022-12-11T05:26:00;20.03;;;15.60;;
315;SDS011;14128;48.686;9.738;2022-12-11T05:28:30;26.13;;;17.93;;
315;SDS011;14128;48.686;9.738;2022-12-11T05:31:00;24.60;;;17.30;;
315;SDS011;14128;48.686;9.738;2022-12-11T05:33:29;24.37;;;18.80;;
315;SDS011;14128;48.686;9.738;2022-12-11T05:35:57;22.90;;;17.87;;
315;SDS011;14128;48.686;9.738;2022-12-11T05:38:23;26.00;;;19.40;;
315;SDS011;14128;48.686;9.738;2022-12-11T05:40:54;28.47;;;18.40;;
315;SDS011;14128;48.686;9.738;2022-12-11T05:43:24;21.93;;;16.03;;
315;SDS011;14128;48.686;9.738;2022-12-11T05:45:52;23.20;;;17.57;;
315;SDS011;14128;48.686;9.738;2022-12-11T05:48:19;26.43;;;17.10;;
315;SDS011;14128;48.686;9.738;2022-12-11T05:50:55;19.50;;;16.30;;
315;SDS011;14128;48.686;9.738;2022-12-11T05:53:22;24.53;;;15.60;;
315;SDS011;14128;48.686;9.738;2022-12-11T05:55:49;20.17;;;15.27;;
315;SDS011;14128;48.686;9.738;2022-12-11T05:58:16;23.50;;;16.90;;
315;SDS011;14128;48.686;9.738;2022-12-11T06:00:45;15.07;;;12.40;;
315;SDS011;14128;48.686;9.738;2022-12-11T06:03:12;20.50;;;15.10;;
315;SDS011;14128;48.686;9.738;2022-12-11T06:05:39;20.30;;;14.30;;
315;SDS011;14128;48.686;9.738;2022-12-11T06:08:06;20.53;;;15.00;;
315;SDS011;14128;48.686;9.738;2022-12-11T06:10:33;19.03;;;14.97;;
315;SDS011;14128;48.686;9.738;2022-12-11T06:13:00;19.63;;;14.30;;
315;SDS011;14128;48.686;9.738;2022-12-11T06:15:27;17.00;;;14.30;;
315;SDS011;14128;48.686;9.738;2022-12-11T06:17:55;18.50;;;12.80;;
315;SDS011;14128;48.686;9.738;2022-12-11T06:20:22;21.20;;;14.07;;
315;SDS011;14128;48.686;9.738;2022-12-11T06:22:49;16.47;;;11.90;;
315;SDS011;14128;48.686;9.738;2022-12-11T06:25:15;15.23;;;12.07;;
315;SDS011;14128;48.686;9.738;2022-12-11T06:27:42;17.70;;;13.57;;
315;SDS011;14128;48.686;9.738;2022-12-11T06:30:10;16.00;;;12.50;;
315;SDS011;14128;48.686;9.738;2022-12-11T06:32:37;20.83;;;12.90;;
315;SDS011;14128;48.686;9.738;2022-12-11T06:35:06;20.13;;;14.80;;
315;SDS011;14128;48.686;9.738;2022-12-11T06:37:33;19.53;;;14.97;;
315;SDS011;14128;48.686;9.738;2022-12-11T06:40:00;18.80;;;14.00;;
315;SDS011;14128;48.686;9.738;2022-12-11T06:42:28;21.23;;;14.00;;
315;SDS011;14128;48.686;9.738;2022-12-11T06:44:55;19.67;;;13.03;;
315;SDS011;14128;48.686;9.738;2022-12-11T06:47:23;19.63;;;14.30;;
315;SDS011;14128;48.686;9.738;2022-12-11T06:49:50;22.50;;;15.17;;
315;SDS011;14128;48.686;9.738;2022-12-11T06:52:19;18.70;;;13.90;;
315;SDS011;14128;48.686;9.738;2022-12-11T06:54:46;19.20;;;14.27;;
315;SDS011;14128;48.686;9.738;2022-12-11T06:57:13;21.27;;;14.87;;
315;SDS011;14128;48.686;9.738;2022-12-11T06:59:40;22.50;;;15.80;;
315;SDS011;14128;48.686;9.738;2022-12-11T07:02:08;22.30;;;15.53;;
315;SDS011;14128;48.686;9.738;2022-12-11T07:04:37;23.03;;;16.20;;
315;SDS011;14128;48.686;9.738;2022-12-11T07:07:04;22.67;;;17.03;;
315;SDS011;14128;48.686;9.738;2022-12-11T07:09:32;23.10;;;14.70;;
315;SDS011;14128;48.686;9.738;2022-12-11T07:11:59;20.13;;;14.43;;
315;SDS011;14128;48.686;9.738;2022-12-11T07:14:28;18.80;;;14.40;;
315;SDS011;14128;48.686;9.738;2022-12-11T07:16:54;23.23;;;16.30;;
315;SDS011;14128;48.686;9.738;2022-12-11T07:19:21;19.80;;;14.87;;
315;SDS011;14128;48.686;9.738;2022-12-11T07:21:48;21.87;;;16.67;;
315;SDS011;14128;48.686;9.738;2022-12-11T07:24:15;19.23;;;15.37;;
315;SDS011;14128;48.686;9.738;2022-12-11T07:26:44;21.37;;;15.90;;
315;SDS011;14128;48.686;9.738;2022-12-11T07:29:11;23.17;;;15.73;;
315;SDS011;14128;48.686;9.738;2022-12-11T07:31:38;25.90;;;17.60;;
315;SDS011;14128;48.686;9.738;2022-12-11T07:34:05;24.90;;;17.00;;
315;SDS011;14128;48.686;9.738;2022-12-11T07:36:32;24.57;;;17.20;;
315;SDS011;14128;48.686;9.738;2022-12-11T07:39:00;20.90;;;15.33;;
315;SDS011;14128;48.686;9.738;2022-12-11T07:41:27;22.33;;;14.80;;
315;SDS011;14128;48.686;9.738;2022-12-11T07:43:57;22.30;;;17.17;;
315;SDS011;14128;48.686;9.738;2022-12-11T07:46:26;22.60;;;16.97;;
315;SDS011;14128;48.686;9.738;2022-12-11T07:48:54;20.83;;;15.53;;
315;SDS011;14128;48.686;9.738;2022-12-11T07:51:22;27.63;;;18.13;;
315;SDS011;14128;48.686;9.738;2022-12-11T07:53:52;25.73;;;18.33;;
315;SDS011;14128;48.686;9.738;2022-12-11T07:56:22;24.77;;;16.63;;
315;SDS011;14128;48.686;9.738;2022-12-11T07:58:48;25.90;;;17.43;;
315;SDS011;14128;48.686;9.738;2022-12-11T08:01:17;21.83;;;16.07;;
315;SDS011;14128;48.686;9.738;2022-12-11T08:03:45;24.97;;;16.77;;
315;SDS011;14128;48.686;9.738;2022-12-11T08:06:13;27.83;;;16.73;;
315;SDS011;14128;48.686;9.738;2022-12-11T08:08:40;25.83;;;15.30;;
315;SDS011;14128;48.686;9.738;2022-12-11T08:11:08;20.77;;;15.20;;
315;SDS011;14128;48.686;9.738;2022-12-11T08:13:37;22.50;;;16.43;;
315;SDS011;14128;48.686;9.738;2022-12-11T08:16:05;28.40;;;17.03;;
315;SDS011;14128;48.686;9.738;2022-12-11T08:18:34;32.13;;;21.60;;
315;SDS011;14128;48.686;9.738;2022-12-11T08:21:03;25.17;;;18.90;;
315;SDS011;14128;48.686;9.738;2022-12-11T08:23:31;23.87;;;17.17;;
315;SDS011;14128;48.686;9.738;2022-12-11T08:25:58;23.47;;;16.13;;
315;SDS011;14128;48.686;9.738;2022-12-11T08:28:26;20.00;;;15.60;;
315;SDS011;14128;48.686;9.738;2022-12-11T08:30:53;23.10;;;14.90;;
315;SDS011;14128;48.686;9.738;2022-12-11T08:33:20;22.17;;;15.90;;
315;SDS011;14128;48.686;9.738;2022-12-11T08:35:48;19.50;;;13.67;;
315;SDS011;14128;48.686;9.738;2022-12-11T08:38:15;21.80;;;15.07;;
315;SDS011;14128;48.686;9.738;2022-12-11T08:40:42;20.93;;;15.30;;
315;SDS011;14128;48.686;9.738;2022-12-11T08:43:09;23.23;;;16.30;;
315;SDS011;14128;48.686;9.738;2022-12-11T08:45:36;19.20;;;13.90;;
315;SDS011;14128;48.686;9.738;2022-12-11T08:48:03;17.60;;;14.70;;
315;SDS011;14128;48.686;9.738;2022-12-11T08:50:30;22.37;;;16.53;;
315;SDS011;14128;48.686;9.738;2022-12-11T08:52:59;20.37;;;14.70;;
315;SDS011;14128;48.686;9.738;2022-12-11T08:55:26;21.70;;;15.10;;
315;SDS011;14128;48.686;9.738;2022-12-11T08:57:52;24.07;;;17.10;;
315;SDS011;14128;48.686;9.738;2022-12-11T09:00:19;21.83;;;13.70;;
315;SDS011;14128;48.686;9.738;2022-12-11T09:02:46;19.47;;;16.30;;
315;SDS011;14128;48.686;9.738;2022-12-11T09:05:13;23.90;;;15.77;;
315;SDS011;14128;48.686;9.738;2022-12-11T09:07:40;23.57;;;16.23;;
315;SDS011;14128;48.686;9.738;2022-12-11T09:10:09;20.53;;;15.00;;
315;SDS011;14128;48.686;9.738;2022-12-11T09:12:35;23.50;;;14.83;;
315;SDS011;14128;48.686;9.738;2022-12-11T09:15:03;23.90;;;16.00;;
315;SDS011;14128;48.686;9.738;2022-12-11T09:17:30;26.50;;;17.20;;
315;SDS011;14128;48.686;9.738;2022-12-11T09:19:58;22.97;;;15.87;;
315;SDS011;14128;48.686;9.738;2022-12-11T09:22:25;19.50;;;14.60;;
315;SDS011;14128;48.686;9.738;2022-12-11T09:24:52;20.83;;;14.97;;
315;SDS011;14128;48.686;9.738;2022-12-11T09:27:20;21.70;;;16.33;;
315;SDS011;14128;48.686;9.738;2022-12-11T09:29:47;18.40;;;13.10;;
315;SDS011;14128;48.686;9.738;2022-12-11T09:32:15;19.20;;;13.77;;
315;SDS011;14128;48.686;9.738;2022-12-11T09:34:42;16.03;;;13.13;;
315;SDS011;14128;48.686;9.738;2022-12-11T09:37:09;17.23;;;12.53;;
315;SDS011;14128;48.686;9.738;2022-12-11T09:39:36;17.77;;;11.53;;
315;SDS011;14128;48.686;9.738;2022-12-11T09:42:03;18.03;;;13.63;;
315;SDS011;14128;48.686;9.738;2022-12-11T09:44:38;18.47;;;13.70;;
315;SDS011;14128;48.686;9.738;2022-12-11T09:47:19;18.43;;;14.90;;
315;SDS011;14128;48.686;9.738;2022-12-11T09:49:49;17.80;;;13.00;;
315;SDS011;14128;48.686;9.738;2022-12-11T09:52:22;18.80;;;13.70;;
315;SDS011;14128;48.686;9.738;2022-12-11T09:54:59;20.93;;;11.63;;
315;SDS011;14128;48.686;9.738;2022-12-11T09:57:31;13.90;;;11.57;;
315;SDS011;14128;48.686;9.738;2022-12-11T10:00:12;14.33;;;11.13;;
315;SDS011;14128;48.686;9.738;2022-12-11T10:02:59;14.67;;;11.50;;
315;SDS011;14128;48.686;9.738;2022-12-11T10:05:42;18.90;;;12.70;;
315;SDS011;14128;48.686;9.738;2022-12-11T10:08:16;16.33;;;11.70;;
315;SDS011;14128;48.686;9.738;2022-12-11T10:10:52;18.23;;;12.30;;
315;SDS011;14128;48.686;9.738;2022-12-11T10:13:30;14.30;;;11.03;;
315;SDS011;14128;48.686;9.738;2022-12-11T10:16:04;16.80;;;11.20;;
315;SDS011;14128;48.686;9.738;2022-12-11T10:18:39;16.07;;;12.50;;
315;SDS011;14128;48.686;9.738;2022-12-11T10:21:07;19.50;;;13.57;;
315;SDS011;14128;48.686;9.738;2022-12-11T10:23:37;17.60;;;12.30;;
315;SDS011;14128;48.686;9.738;2022-12-11T10:26:09;21.90;;;14.50;;
315;SDS011;14128;48.686;9.738;2022-12-11T10:28:46;15.60;;;12.57;;
315;SDS011;14128;48.686;9.738;2022-12-11T10:31:16;18.23;;;12.00;;
315;SDS011;14128;48.686;9.738;2022-12-11T10:33:48;18.17;;;12.80;;
315;SDS011;14128;48.686;9.738;2022-12-11T10:36:24;20.20;;;10.63;;
315;SDS011;14128;48.686;9.738;2022-12-11T10:38:53;16.43;;;11.37;;
315;SDS011;14128;48.686;9.738;2022-12-11T10:41:21;15.47;;;10.07;;
315;SDS011;14128;48.686;9.738;2022-12-11T10:43:50;12.90;;;11.87;;
315;SDS011;14128;48.686;9.738;2022-12-11T10:46:20;18.33;;;12.93;;
315;SDS011;14128;48.686;9.738;2022-12-11T10:48:49;15.97;;;12.07;;
315;SDS011;14128;48.686;9.738;2022-12-11T10:51:18;15.30;;;11.60;;
315;SDS011;14128;48.686;9.738;2022-12-11T10:53:50;13.70;;;10.93;;
315;SDS011;14128;48.686;9.738;2022-12-11T10:56:23;14.07;;;10.00;;
315;SDS011;14128;48.686;9.738;2022-12-11T10:58:52;18.63;;;13.13;;
315;SDS011;14128;48.686;9.738;2022-12-11T11:01:23;17.97;;;14.30;;
315;SDS011;14128;48.686;9.738;2022-12-11T11:03:54;21.30;;;13.37;;
315;SDS011;14128;48.686;9.738;2022-12-11T11:06:24;18.17;;;12.80;;
315;SDS011;14128;48.686;9.738;2022-12-11T11:08:52;17.60;;;13.13;;
315;SDS011;14128;48.686;9.738;2022-12-11T11:11:22;24.50;;;14.80;;
315;SDS011;14128;48.686;9.738;2022-12-11T11:13:51;21.10;;;15.00;;
315;SDS011;14128;48.686;9.738;2022-12-11T11:16:30;18.63;;;11.93;;
315;SDS011;14128;48.686;9.738;2022-12-11T11:19:00;17.20;;;11.40;;
315;SDS011;14128;48.686;9.738;2022-12-11T11:21:27;16.83;;;12.30;;
315;SDS011;14128;48.686;9.738;2022-12-11T11:23:54;19.00;;;12.40;;
315;SDS011;14128;48.686;9.738;2022-12-11T11:26:21;16.70;;;12.03;;
315;SDS011;14128;48.686;9.738;2022-12-11T11:28:49;14.83;;;10.73;;
315;SDS011;14128;48.686;9.738;2022-12-11T11:31:18;15.83;;;11.90;;
315;SDS011;14128;48.686;9.738;2022-12-11T11:33:51;17.23;;;13.20;;
315;SDS011;14128;48.686;9.738;2022-12-11T11:36:21;20.27;;;13.93;;
315;SDS011;14128;48.686;9.738;2022-12-11T11:38:55;18.80;;;13.67;;
315;SDS011;14128;48.686;9.738;2022-12-11T11:41:33;19.20;;;12.23;;
315;SDS011;14128;48.686;9.738;2022-12-11T11:44:06;20.80;;;13.30;;
315;SDS011;14128;48.686;9.738;2022-12-11T11:46:37;17.03;;;13.13;;
315;SDS011;14128;48.686;9.738;2022-12-11T11:49:12;17.67;;;11.40;;
315;SDS011;14128;48.686;9.738;2022-12-11T11:51:44;16.80;;;11.63;;
315;SDS011;14128;48.686;9.738;2022-12-11T11:54:17;19.50;;;13.57;;
315;SDS011;14128;48.686;9.738;2022-12-11T11:56:50;18.07;;;12.33;;
315;SDS011;14128;48.686;9.738;2022-12-11T11:59:20;16.37;;;12.90;;
315;SDS011;14128;48.686;9.738;2022-12-11T12:01:54;18.43;;;13.77;;
315;SDS011;14128;48.686;9.738;2022-12-11T12:04:23;20.07;;;13.97;;
315;SDS011;14128;48.686;9.738;2022-12-11T12:06:56;18.77;;;11.70;;
315;SDS011;14128;48.686;9.738;2022-12-11T12:09:39;15.57;;;12.77;;
315;SDS011;14128;48.686;9.738;2022-12-11T12:12:16;16.97;;;12.23;;
315;SDS011;14128;48.686;9.738;2022-12-11T12:14:52;15.93;;;11.50;;
315;SDS011;14128;48.686;9.738;2022-12-11T12:17:29;10.97;;;8.60;;
315;SDS011;14128;48.686;9.738;2022-12-11T12:20:07;10.67;;;8.00;;
315;SDS011;14128;48.686;9.738;2022-12-11T12:22:49;15.83;;;9.70;;
315;SDS011;14128;48.686;9.738;2022-12-11T12:25:23;12.87;;;10.27;;
315;SDS011;14128;48.686;9.738;2022-12-11T12:27:55;14.40;;;10.30;;
315;SDS011;14128;48.686;9.738;2022-12-11T12:30:34;17.00;;;10.50;;
315;SDS011;14128;48.686;9.738;2022-12-11T12:33:15;17.10;;;11.80;;
315;SDS011;14128;48.686;9.738;2022-12-11T12:35:52;21.30;;;13.83;;
315;SDS011;14128;48.686;9.738;2022-12-11T12:38:27;16.73;;;11.93;;
315;SDS011;14128;48.686;9.738;2022-12-11T12:41:02;20.17;;;12.47;;
315;SDS011;14128;48.686;9.738;2022-12-11T12:43:46;19.90;;;13.40;;
315;SDS011;14128;48.686;9.738;2022-12-11T12:46:27;17.30;;;11.07;;
315;SDS011;14128;48.686;9.738;2022-12-11T12:49:04;16.40;;;11.60;;
315;SDS011;14128;48.686;9.738;2022-12-11T12:51:37;13.33;;;10.53;;
315;SDS011;14128;48.686;9.738;2022-12-11T12:54:05;25.40;;;12.90;;
315;SDS011;14128;48.686;9.738;2022-12-11T12:56:35;14.97;;;10.70;;
315;SDS011;14128;48.686;9.738;2022-12-11T12:59:06;17.27;;;11.20;;
315;SDS011;14128;48.686;9.738;2022-12-11T13:01:45;13.73;;;11.27;;
315;SDS011;14128;48.686;9.738;2022-12-11T13:04:22;18.73;;;13.93;;
315;SDS011;14128;48.686;9.738;2022-12-11T13:07:08;14.67;;;11.03;;
315;SDS011;14128;48.686;9.738;2022-12-11T13:09:38;22.33;;;14.20;;
315;SDS011;14128;48.686;9.738;2022-12-11T13:12:11;24.50;;;17.80;;
315;SDS011;14128;48.686;9.738;2022-12-11T13:14:38;17.60;;;12.53;;
315;SDS011;14128;48.686;9.738;2022-12-11T13:17:07;23.63;;;14.67;;
315;SDS011;14128;48.686;9.738;2022-12-11T13:20:05;20.50;;;13.83;;
315;SDS011;14128;48.686;9.738;2022-12-11T13:22:47;16.40;;;12.77;;
315;SDS011;14128;48.686;9.738;2022-12-11T13:25:18;20.10;;;12.83;;
315;SDS011;14128;48.686;9.738;2022-12-11T13:27:48;14.20;;;10.50;;
315;SDS011;14128;48.686;9.738;2022-12-11T13:30:20;13.67;;;10.17;;
315;SDS011;14128;48.686;9.738;2022-12-11T13:32:53;15.90;;;11.57;;
315;SDS011;14128;48.686;9.738;2022-12-11T13:35:26;15.87;;;10.33;;
315;SDS011;14128;48.686;9.738;2022-12-11T13:37:55;15.70;;;11.50;;
315;SDS011;14128;48.686;9.738;2022-12-11T13:40:32;12.23;;;9.90;;
315;SDS011;14128;48.686;9.738;2022-12-11T13:43:02;16.83;;;12.13;;
315;SDS011;14128;48.686;9.738;2022-12-11T13:45:33;14.07;;;8.80;;
315;SDS011;14128;48.686;9.738;2022-12-11T13:48:06;12.80;;;10.57;;
315;SDS011;14128;48.686;9.738;2022-12-11T13:50:43;16.43;;;10.50;;
315;SDS011;14128;48.686;9.738;2022-12-11T13:53:14;17.67;;;11.77;;
315;SDS011;14128;48.686;9.738;2022-12-11T13:55:41;15.10;;;11.70;;
315;SDS011;14128;48.686;9.738;2022-12-11T13:58:16;15.70;;;10.40;;
315;SDS011;14128;48.686;9.738;2022-12-11T14:00:51;18.17;;;11.90;;
315;SDS011;14128;48.686;9.738;2022-12-11T14:03:25;17.37;;;12.50;;
315;SDS011;14128;48.686;9.738;2022-12-11T14:05:52;14.40;;;10.87;;
315;SDS011;14128;48.686;9.738;2022-12-11T14:08:21;14.10;;;11.37;;
315;SDS011;14128;48.686;9.738;2022-12-11T14:10:52;13.73;;;11.33;;
315;SDS011;14128;48.686;9.738;2022-12-11T14:13:20;17.47;;;12.93;;
315;SDS011;14128;48.686;9.738;2022-12-11T14:15:49;16.47;;;10.70;;
315;SDS011;14128;48.686;9.738;2022-12-11T14:18:17;17.80;;;12.20;;
315;SDS011;14128;48.686;9.738;2022-12-11T14:20:52;14.20;;;10.47;;
315;SDS011;14128;48.686;9.738;2022-12-11T14:23:22;22.70;;;13.40;;
315;SDS011;14128;48.686;9.738;2022-12-11T14:25:51;14.30;;;12.20;;
315;SDS011;14128;48.686;9.738;2022-12-11T14:28:19;18.43;;;13.47;;
315;SDS011;14128;48.686;9.738;2022-12-11T14:30:48;19.63;;;13.80;;
315;SDS011;14128;48.686;9.738;2022-12-11T14:33:16;16.73;;;12.10;;
315;SDS011;14128;48.686;9.738;2022-12-11T14:35:47;17.90;;;13.10;;
315;SDS011;14128;48.686;9.738;2022-12-11T14:38:15;20.70;;;13.87;;
315;SDS011;14128;48.686;9.738;2022-12-11T14:40:46;22.00;;;13.50;;
315;SDS011;14128;48.686;9.738;2022-12-11T14:43:19;14.03;;;11.20;;
315;SDS011;14128;48.686;9.738;2022-12-11T14:45:48;21.03;;;14.77;;
315;SDS011;14128;48.686;9.738;2022-12-11T14:48:22;20.90;;;14.07;;
315;SDS011;14128;48.686;9.738;2022-12-11T14:50:51;21.37;;;15.90;;
315;SDS011;14128;48.686;9.738;2022-12-11T14:53:22;36.07;;;23.50;;
315;SDS011;14128;48.686;9.738;2022-12-11T14:56:00;19.30;;;13.40;;
315;SDS011;14128;48.686;9.738;2022-12-11T14:58:30;23.27;;;14.70;;
315;SDS011;14128;48.686;9.738;2022-12-11T15:00:59;19.97;;;15.40;;
315;SDS011;14128;48.686;9.738;2022-12-11T15:03:32;19.27;;;14.27;;
315;SDS011;14128;48.686;9.738;2022-12-11T15:06:00;34.90;;;22.20;;
315;SDS011;14128;48.686;9.738;2022-12-11T15:08:28;25.67;;;18.13;;